Terminal Aerodrome Forecast
Issued by NWS

Home | Current Version | Previous Version | Text Only | Print | Product List | Glossary On
Versions: 1 2 3 4 5 6 7 8 9 10 11 12 13 14 15 16 17 18 19 20 21 22 23 24 25 26 27 28 29 30 31 32 33 34
679
FTUS43 KDLH 090157 AAB
TAFHIB
TAF AMD
KHIB 090157Z 0902/0924 34015G24KT P6SM VCSH OVC020
     FM090300 34011G19KT P6SM OVC020
     FM090600 34011KT P6SM BKN018
     FM091400 33007KT P6SM SCT021
     FM091900 25006KT P6SM BKN080=

USA.gov is the U.S. government's official web portal to all federal, state and local government web resources and services.